McKnight, Texas
Current Conditions -  °F | °C
As of 8:15 PM on Thursday 18 Dec 2014 (Local Time) from KRFI Reporting Station
Overcast Overcast  
Wind Chill: 50°   Ceiling: 500
Heat Index: 50°   Visibility: 7mi
Dew Point: 49°   Wind: 6mph
Humidity: 97%   Direction: 40°NE
Pressure: 30.15"   Gusts: NA
Location:  32.1449°N, 94.7416°W
Report Text: KRFI 190215Z AUTO 04005KT 7SM OVC005 10/10 A3015 RMK AO2 T01000095
Loading
Personal Weather Stations






























Interactive Weather Map New forecast layout! Learn more

10-Day Weather Forecast

Advertisements
Track Severe Weather on mobile